sensor_id;sensor_type;location;lat;lon;timestamp;temperature;humidity
5061;DHT22;2549;52.128;21.068;2023-04-27T00:00:13;9.20;86.10
5061;DHT22;2549;52.128;21.068;2023-04-27T00:02:39;9.20;86.30
5061;DHT22;2549;52.128;21.068;2023-04-27T00:05:07;9.20;86.10
5061;DHT22;2549;52.128;21.068;2023-04-27T00:07:37;9.20;86.20
5061;DHT22;2549;52.128;21.068;2023-04-27T00:10:03;9.20;86.20
5061;DHT22;2549;52.128;21.068;2023-04-27T00:12:30;9.10;86.50
5061;DHT22;2549;52.128;21.068;2023-04-27T00:14:57;9.10;86.60
5061;DHT22;2549;52.128;21.068;2023-04-27T00:17:24;9.00;86.70
5061;DHT22;2549;52.128;21.068;2023-04-27T00:19:51;9.00;86.50
5061;DHT22;2549;52.128;21.068;2023-04-27T00:22:19;9.00;86.90
5061;DHT22;2549;52.128;21.068;2023-04-27T00:24:46;9.00;87.30
5061;DHT22;2549;52.128;21.068;2023-04-27T00:27:13;9.00;86.80
5061;DHT22;2549;52.128;21.068;2023-04-27T00:29:40;9.00;86.90
5061;DHT22;2549;52.128;21.068;2023-04-27T00:32:11;8.90;87.00
5061;DHT22;2549;52.128;21.068;2023-04-27T00:34:38;8.80;87.30
5061;DHT22;2549;52.128;21.068;2023-04-27T00:37:06;8.80;87.50
5061;DHT22;2549;52.128;21.068;2023-04-27T00:39:33;8.80;87.60
5061;DHT22;2549;52.128;21.068;2023-04-27T00:42:00;8.80;87.80
5061;DHT22;2549;52.128;21.068;2023-04-27T00:44:27;8.70;87.80
5061;DHT22;2549;52.128;21.068;2023-04-27T00:46:54;8.70;88.00
5061;DHT22;2549;52.128;21.068;2023-04-27T00:49:22;8.70;87.80
5061;DHT22;2549;52.128;21.068;2023-04-27T00:51:49;8.70;87.80
5061;DHT22;2549;52.128;21.068;2023-04-27T00:54:19;8.70;87.90
5061;DHT22;2549;52.128;21.068;2023-04-27T00:56:49;8.60;88.00
5061;DHT22;2549;52.128;21.068;2023-04-27T00:59:18;8.60;88.00
5061;DHT22;2549;52.128;21.068;2023-04-27T01:01:45;8.50;88.40
5061;DHT22;2549;52.128;21.068;2023-04-27T01:04:12;8.60;88.40
5061;DHT22;2549;52.128;21.068;2023-04-27T01:06:39;8.50;88.30
5061;DHT22;2549;52.128;21.068;2023-04-27T01:09:06;8.40;88.40
5061;DHT22;2549;52.128;21.068;2023-04-27T01:11:34;8.40;88.60
5061;DHT22;2549;52.128;21.068;2023-04-27T01:14:05;8.40;89.60
5061;DHT22;2549;52.128;21.068;2023-04-27T01:16:32;8.40;88.60
5061;DHT22;2549;52.128;21.068;2023-04-27T01:19:00;8.40;88.80
5061;DHT22;2549;52.128;21.068;2023-04-27T01:21:27;8.30;88.60
5061;DHT22;2549;52.128;21.068;2023-04-27T01:23:54;8.30;88.80
5061;DHT22;2549;52.128;21.068;2023-04-27T01:26:21;8.30;89.00
5061;DHT22;2549;52.128;21.068;2023-04-27T01:28:48;8.30;88.90
5061;DHT22;2549;52.128;21.068;2023-04-27T01:31:15;8.30;88.90
5061;DHT22;2549;52.128;21.068;2023-04-27T01:33:42;8.20;89.10
5061;DHT22;2549;52.128;21.068;2023-04-27T01:36:09;8.30;89.20
5061;DHT22;2549;52.128;21.068;2023-04-27T01:38:36;8.30;89.20
5061;DHT22;2549;52.128;21.068;2023-04-27T01:41:04;8.30;89.00
5061;DHT22;2549;52.128;21.068;2023-04-27T01:43:31;8.30;89.20
5061;DHT22;2549;52.128;21.068;2023-04-27T01:46:09;8.30;89.20
5061;DHT22;2549;52.128;21.068;2023-04-27T01:48:39;8.30;89.30
5061;DHT22;2549;52.128;21.068;2023-04-27T01:51:06;8.20;88.90
5061;DHT22;2549;52.128;21.068;2023-04-27T01:53:33;8.20;89.10
5061;DHT22;2549;52.128;21.068;2023-04-27T01:56:00;8.10;89.40
5061;DHT22;2549;52.128;21.068;2023-04-27T01:58:27;8.10;89.40
5061;DHT22;2549;52.128;21.068;2023-04-27T02:00:54;8.10;89.40
5061;DHT22;2549;52.128;21.068;2023-04-27T02:03:20;8.20;89.50
5061;DHT22;2549;52.128;21.068;2023-04-27T02:05:48;8.20;89.50
5061;DHT22;2549;52.128;21.068;2023-04-27T02:08:15;8.20;89.50
5061;DHT22;2549;52.128;21.068;2023-04-27T02:10:42;8.20;89.40
5061;DHT22;2549;52.128;21.068;2023-04-27T02:13:08;8.10;89.30
5061;DHT22;2549;52.128;21.068;2023-04-27T02:15:35;8.10;89.70
5061;DHT22;2549;52.128;21.068;2023-04-27T02:18:02;8.10;89.80
5061;DHT22;2549;52.128;21.068;2023-04-27T02:20:31;8.00;89.80
5061;DHT22;2549;52.128;21.068;2023-04-27T02:22:58;8.10;90.00
5061;DHT22;2549;52.128;21.068;2023-04-27T02:25:26;8.10;89.70
5061;DHT22;2549;52.128;21.068;2023-04-27T02:27:53;8.00;89.70
5061;DHT22;2549;52.128;21.068;2023-04-27T02:30:21;8.10;89.80
5061;DHT22;2549;52.128;21.068;2023-04-27T02:32:48;8.00;89.40
5061;DHT22;2549;52.128;21.068;2023-04-27T02:35:15;8.00;89.80
5061;DHT22;2549;52.128;21.068;2023-04-27T02:37:42;8.00;89.80
5061;DHT22;2549;52.128;21.068;2023-04-27T02:40:09;8.00;89.70
5061;DHT22;2549;52.128;21.068;2023-04-27T02:42:36;8.00;89.60
5061;DHT22;2549;52.128;21.068;2023-04-27T02:45:06;8.00;89.80
5061;DHT22;2549;52.128;21.068;2023-04-27T02:47:33;8.00;89.50
5061;DHT22;2549;52.128;21.068;2023-04-27T02:50:01;8.00;89.50
5061;DHT22;2549;52.128;21.068;2023-04-27T02:52:28;8.00;89.40
5061;DHT22;2549;52.128;21.068;2023-04-27T02:54:55;7.90;89.50
5061;DHT22;2549;52.128;21.068;2023-04-27T02:57:22;7.90;89.70
5061;DHT22;2549;52.128;21.068;2023-04-27T02:59:48;7.80;89.80
5061;DHT22;2549;52.128;21.068;2023-04-27T03:02:16;7.80;90.00
5061;DHT22;2549;52.128;21.068;2023-04-27T03:04:43;7.80;90.00
5061;DHT22;2549;52.128;21.068;2023-04-27T03:07:10;7.80;90.00
5061;DHT22;2549;52.128;21.068;2023-04-27T03:09:38;7.70;90.20
5061;DHT22;2549;52.128;21.068;2023-04-27T03:12:05;7.70;90.10
5061;DHT22;2549;52.128;21.068;2023-04-27T03:14:31;7.80;90.10
5061;DHT22;2549;52.128;21.068;2023-04-27T03:16:59;7.80;90.10
5061;DHT22;2549;52.128;21.068;2023-04-27T03:19:26;7.80;90.00
5061;DHT22;2549;52.128;21.068;2023-04-27T03:21:53;7.80;90.10
5061;DHT22;2549;52.128;21.068;2023-04-27T03:24:20;7.70;90.00
5061;DHT22;2549;52.128;21.068;2023-04-27T03:26:47;7.70;90.10
5061;DHT22;2549;52.128;21.068;2023-04-27T03:29:14;7.70;90.10
5061;DHT22;2549;52.128;21.068;2023-04-27T03:31:41;7.70;90.10
5061;DHT22;2549;52.128;21.068;2023-04-27T03:34:08;7.60;90.10
5061;DHT22;2549;52.128;21.068;2023-04-27T03:36:35;7.70;90.20
5061;DHT22;2549;52.128;21.068;2023-04-27T03:39:02;7.70;90.30
5061;DHT22;2549;52.128;21.068;2023-04-27T03:41:28;7.60;90.30
5061;DHT22;2549;52.128;21.068;2023-04-27T03:43:55;7.60;90.40
5061;DHT22;2549;52.128;21.068;2023-04-27T03:46:22;7.70;90.40
5061;DHT22;2549;52.128;21.068;2023-04-27T03:48:49;7.70;90.30
5061;DHT22;2549;52.128;21.068;2023-04-27T03:51:16;7.60;90.30
5061;DHT22;2549;52.128;21.068;2023-04-27T03:53:43;7.60;90.30
5061;DHT22;2549;52.128;21.068;2023-04-27T03:56:10;7.60;90.50
5061;DHT22;2549;52.128;21.068;2023-04-27T03:58:37;7.60;90.60
5061;DHT22;2549;52.128;21.068;2023-04-27T04:01:04;7.60;90.60
5061;DHT22;2549;52.128;21.068;2023-04-27T04:03:31;7.60;90.80
5061;DHT22;2549;52.128;21.068;2023-04-27T04:05:58;7.60;90.80
5061;DHT22;2549;52.128;21.068;2023-04-27T04:08:25;7.70;90.90
5061;DHT22;2549;52.128;21.068;2023-04-27T04:10:52;7.70;90.90
5061;DHT22;2549;52.128;21.068;2023-04-27T04:13:19;7.60;90.80
5061;DHT22;2549;52.128;21.068;2023-04-27T04:15:46;7.60;91.00
5061;DHT22;2549;52.128;21.068;2023-04-27T04:18:13;7.70;90.90
5061;DHT22;2549;52.128;21.068;2023-04-27T04:20:39;7.70;91.10
5061;DHT22;2549;52.128;21.068;2023-04-27T04:23:07;7.70;91.10
5061;DHT22;2549;52.128;21.068;2023-04-27T04:25:34;7.80;91.00
5061;DHT22;2549;52.128;21.068;2023-04-27T04:28:00;7.80;91.00
5061;DHT22;2549;52.128;21.068;2023-04-27T04:30:29;7.90;91.10
5061;DHT22;2549;52.128;21.068;2023-04-27T04:32:56;7.90;91.00
5061;DHT22;2549;52.128;21.068;2023-04-27T04:35:23;8.00;90.90
5061;DHT22;2549;52.128;21.068;2023-04-27T04:37:50;8.00;90.90
5061;DHT22;2549;52.128;21.068;2023-04-27T04:40:16;8.00;90.90
5061;DHT22;2549;52.128;21.068;2023-04-27T04:42:43;8.10;90.90
5061;DHT22;2549;52.128;21.068;2023-04-27T04:45:10;8.10;90.80
5061;DHT22;2549;52.128;21.068;2023-04-27T04:47:37;8.10;90.80
5061;DHT22;2549;52.128;21.068;2023-04-27T04:50:05;8.20;90.90
5061;DHT22;2549;52.128;21.068;2023-04-27T04:52:32;8.20;90.90
5061;DHT22;2549;52.128;21.068;2023-04-27T04:54:59;8.30;90.80
5061;DHT22;2549;52.128;21.068;2023-04-27T04:57:26;8.30;90.70
5061;DHT22;2549;52.128;21.068;2023-04-27T04:59:53;8.30;90.90
5061;DHT22;2549;52.128;21.068;2023-04-27T05:02:20;8.40;90.80
5061;DHT22;2549;52.128;21.068;2023-04-27T05:04:47;8.40;90.80
5061;DHT22;2549;52.128;21.068;2023-04-27T05:07:14;8.40;90.90
5061;DHT22;2549;52.128;21.068;2023-04-27T05:09:45;8.50;90.90
5061;DHT22;2549;52.128;21.068;2023-04-27T05:12:11;8.50;90.90
5061;DHT22;2549;52.128;21.068;2023-04-27T05:14:38;8.60;90.80
5061;DHT22;2549;52.128;21.068;2023-04-27T05:17:05;8.60;90.80
5061;DHT22;2549;52.128;21.068;2023-04-27T05:19:32;8.70;90.80
5061;DHT22;2549;52.128;21.068;2023-04-27T05:21:58;8.70;90.80
5061;DHT22;2549;52.128;21.068;2023-04-27T05:24:25;8.80;90.80
5061;DHT22;2549;52.128;21.068;2023-04-27T05:26:52;8.80;90.90
5061;DHT22;2549;52.128;21.068;2023-04-27T05:29:20;8.90;91.10
5061;DHT22;2549;52.128;21.068;2023-04-27T05:31:48;8.90;90.90
5061;DHT22;2549;52.128;21.068;2023-04-27T05:34:15;8.90;90.80
5061;DHT22;2549;52.128;21.068;2023-04-27T05:36:42;8.90;90.90
5061;DHT22;2549;52.128;21.068;2023-04-27T05:39:15;9.00;91.00
5061;DHT22;2549;52.128;21.068;2023-04-27T05:41:42;9.00;91.10
5061;DHT22;2549;52.128;21.068;2023-04-27T05:44:09;9.10;91.00
5061;DHT22;2549;52.128;21.068;2023-04-27T05:46:35;9.10;90.90
5061;DHT22;2549;52.128;21.068;2023-04-27T05:49:04;9.20;91.30
5061;DHT22;2549;52.128;21.068;2023-04-27T05:51:32;9.20;91.00
5061;DHT22;2549;52.128;21.068;2023-04-27T05:53:58;9.30;90.90
5061;DHT22;2549;52.128;21.068;2023-04-27T05:56:27;9.30;90.80
5061;DHT22;2549;52.128;21.068;2023-04-27T05:58:54;9.40;90.60
5061;DHT22;2549;52.128;21.068;2023-04-27T06:01:21;9.40;90.50
5061;DHT22;2549;52.128;21.068;2023-04-27T06:03:47;9.40;90.90
5061;DHT22;2549;52.128;21.068;2023-04-27T06:06:14;9.50;90.50
5061;DHT22;2549;52.128;21.068;2023-04-27T06:08:41;9.50;90.60
5061;DHT22;2549;52.128;21.068;2023-04-27T06:11:08;9.60;90.60
5061;DHT22;2549;52.128;21.068;2023-04-27T06:13:35;9.60;90.60
5061;DHT22;2549;52.128;21.068;2023-04-27T06:16:01;9.70;90.50
5061;DHT22;2549;52.128;21.068;2023-04-27T06:18:28;9.60;90.10
5061;DHT22;2549;52.128;21.068;2023-04-27T06:20:59;9.70;90.40
5061;DHT22;2549;52.128;21.068;2023-04-27T06:23:27;9.70;90.60
5061;DHT22;2549;52.128;21.068;2023-04-27T06:25:54;9.80;90.50
5061;DHT22;2549;52.128;21.068;2023-04-27T06:28:21;9.80;90.20
5061;DHT22;2549;52.128;21.068;2023-04-27T06:30:48;9.80;90.10
5061;DHT22;2549;52.128;21.068;2023-04-27T06:33:15;9.80;90.30
5061;DHT22;2549;52.128;21.068;2023-04-27T06:35:43;9.80;90.40
5061;DHT22;2549;52.128;21.068;2023-04-27T06:38:12;9.80;90.40
5061;DHT22;2549;52.128;21.068;2023-04-27T06:40:39;9.90;90.30
5061;DHT22;2549;52.128;21.068;2023-04-27T06:43:06;10.00;89.50
5061;DHT22;2549;52.128;21.068;2023-04-27T06:45:33;10.00;88.90
5061;DHT22;2549;52.128;21.068;2023-04-27T06:48:00;10.00;88.60
5061;DHT22;2549;52.128;21.068;2023-04-27T06:50:27;10.00;88.30
5061;DHT22;2549;52.128;21.068;2023-04-27T06:52:54;10.00;88.40
5061;DHT22;2549;52.128;21.068;2023-04-27T06:55:21;10.10;88.90
5061;DHT22;2549;52.128;21.068;2023-04-27T06:57:49;10.10;88.80
5061;DHT22;2549;52.128;21.068;2023-04-27T07:00:16;10.20;88.40
5061;DHT22;2549;52.128;21.068;2023-04-27T07:02:42;10.20;88.50
5061;DHT22;2549;52.128;21.068;2023-04-27T07:05:09;10.30;88.40
5061;DHT22;2549;52.128;21.068;2023-04-27T07:07:36;10.30;88.20
5061;DHT22;2549;52.128;21.068;2023-04-27T07:10:04;10.40;87.30
5061;DHT22;2549;52.128;21.068;2023-04-27T07:12:31;10.40;86.40
5061;DHT22;2549;52.128;21.068;2023-04-27T07:14:58;10.40;86.30
5061;DHT22;2549;52.128;21.068;2023-04-27T07:17:25;10.50;87.20
5061;DHT22;2549;52.128;21.068;2023-04-27T07:19:51;10.50;87.30
5061;DHT22;2549;52.128;21.068;2023-04-27T07:22:18;10.60;87.20
5061;DHT22;2549;52.128;21.068;2023-04-27T07:24:45;10.60;86.30
5061;DHT22;2549;52.128;21.068;2023-04-27T07:27:12;10.60;86.30
5061;DHT22;2549;52.128;21.068;2023-04-27T07:29:40;10.60;86.00
5061;DHT22;2549;52.128;21.068;2023-04-27T07:32:08;10.60;86.00
5061;DHT22;2549;52.128;21.068;2023-04-27T07:34:35;10.70;86.40
5061;DHT22;2549;52.128;21.068;2023-04-27T07:37:17;10.70;86.30
5061;DHT22;2549;52.128;21.068;2023-04-27T07:39:45;10.70;86.30
5061;DHT22;2549;52.128;21.068;2023-04-27T07:42:12;10.80;86.70
5061;DHT22;2549;52.128;21.068;2023-04-27T07:44:39;10.80;86.30
5061;DHT22;2549;52.128;21.068;2023-04-27T07:47:06;10.80;86.60
5061;DHT22;2549;52.128;21.068;2023-04-27T07:49:33;10.90;87.10
5061;DHT22;2549;52.128;21.068;2023-04-27T07:52:01;10.90;86.80
5061;DHT22;2549;52.128;21.068;2023-04-27T07:54:28;10.90;86.10
5061;DHT22;2549;52.128;21.068;2023-04-27T07:56:55;10.90;86.70
5061;DHT22;2549;52.128;21.068;2023-04-27T07:59:22;11.00;86.40
5061;DHT22;2549;52.128;21.068;2023-04-27T08:01:49;11.00;87.00
5061;DHT22;2549;52.128;21.068;2023-04-27T08:04:16;11.10;86.20
5061;DHT22;2549;52.128;21.068;2023-04-27T08:06:44;11.00;85.40
5061;DHT22;2549;52.128;21.068;2023-04-27T08:09:12;11.10;85.20
5061;DHT22;2549;52.128;21.068;2023-04-27T08:11:40;11.20;85.20
5061;DHT22;2549;52.128;21.068;2023-04-27T08:14:06;11.20;85.00
5061;DHT22;2549;52.128;21.068;2023-04-27T08:16:42;11.20;83.80
5061;DHT22;2549;52.128;21.068;2023-04-27T08:19:10;11.20;84.80
5061;DHT22;2549;52.128;21.068;2023-04-27T08:21:37;11.30;83.50
5061;DHT22;2549;52.128;21.068;2023-04-27T08:24:05;11.30;83.70
5061;DHT22;2549;52.128;21.068;2023-04-27T08:26:32;11.40;83.60
5061;DHT22;2549;52.128;21.068;2023-04-27T08:29:01;11.40;83.80
5061;DHT22;2549;52.128;21.068;2023-04-27T08:31:41;11.40;82.70
5061;DHT22;2549;52.128;21.068;2023-04-27T08:34:08;11.50;81.00
5061;DHT22;2549;52.128;21.068;2023-04-27T08:36:34;11.50;79.70
5061;DHT22;2549;52.128;21.068;2023-04-27T08:39:01;11.60;79.60
5061;DHT22;2549;52.128;21.068;2023-04-27T08:41:33;11.60;80.60
5061;DHT22;2549;52.128;21.068;2023-04-27T08:44:00;11.70;79.50
5061;DHT22;2549;52.128;21.068;2023-04-27T08:46:27;11.80;80.60
5061;DHT22;2549;52.128;21.068;2023-04-27T08:48:54;11.90;80.20
5061;DHT22;2549;52.128;21.068;2023-04-27T08:51:22;11.90;80.30
5061;DHT22;2549;52.128;21.068;2023-04-27T08:53:53;12.00;79.80
5061;DHT22;2549;52.128;21.068;2023-04-27T08:56:22;12.00;80.20
5061;DHT22;2549;52.128;21.068;2023-04-27T08:58:51;12.10;79.30
5061;DHT22;2549;52.128;21.068;2023-04-27T09:01:18;12.00;78.40
5061;DHT22;2549;52.128;21.068;2023-04-27T09:03:45;12.00;78.80
5061;DHT22;2549;52.128;21.068;2023-04-27T09:06:15;12.10;78.80
5061;DHT22;2549;52.128;21.068;2023-04-27T09:08:46;12.00;78.70
5061;DHT22;2549;52.128;21.068;2023-04-27T09:11:15;12.10;78.10
5061;DHT22;2549;52.128;21.068;2023-04-27T09:13:43;12.10;77.10
5061;DHT22;2549;52.128;21.068;2023-04-27T09:16:14;12.00;77.80
5061;DHT22;2549;52.128;21.068;2023-04-27T09:18:42;12.10;77.80
5061;DHT22;2549;52.128;21.068;2023-04-27T09:21:09;12.10;78.80
5061;DHT22;2549;52.128;21.068;2023-04-27T09:23:38;12.10;78.10
5061;DHT22;2549;52.128;21.068;2023-04-27T09:26:07;12.20;78.70
5061;DHT22;2549;52.128;21.068;2023-04-27T09:28:37;12.20;78.70
5061;DHT22;2549;52.128;21.068;2023-04-27T09:31:05;12.30;78.10
5061;DHT22;2549;52.128;21.068;2023-04-27T09:33:35;12.30;76.60
5061;DHT22;2549;52.128;21.068;2023-04-27T09:36:05;12.30;75.70
5061;DHT22;2549;52.128;21.068;2023-04-27T09:38:32;12.50;76.30
5061;DHT22;2549;52.128;21.068;2023-04-27T09:40:59;12.50;74.20
5061;DHT22;2549;52.128;21.068;2023-04-27T09:43:27;12.60;74.90
5061;DHT22;2549;52.128;21.068;2023-04-27T09:45:55;12.50;74.30
5061;DHT22;2549;52.128;21.068;2023-04-27T09:48:25;12.50;74.30
5061;DHT22;2549;52.128;21.068;2023-04-27T09:50:52;12.60;74.90
5061;DHT22;2549;52.128;21.068;2023-04-27T09:53:23;12.60;74.50
5061;DHT22;2549;52.128;21.068;2023-04-27T10:01:31;12.60;73.20
5061;DHT22;2549;52.128;21.068;2023-04-27T10:07:10;12.60;73.20
5061;DHT22;2549;52.128;21.068;2023-04-27T10:09:44;12.60;73.70
5061;DHT22;2549;52.128;21.068;2023-04-27T10:12:25;12.70;74.60
5061;DHT22;2549;52.128;21.068;2023-04-27T10:14:56;12.60;75.30
5061;DHT22;2549;52.128;21.068;2023-04-27T10:17:34;12.60;74.80
5061;DHT22;2549;52.128;21.068;2023-04-27T10:20:04;12.50;74.50
5061;DHT22;2549;52.128;21.068;2023-04-27T10:34:10;12.10;71.80
5061;DHT22;2549;52.128;21.068;2023-04-27T10:36:41;12.00;69.80
5061;DHT22;2549;52.128;21.068;2023-04-27T10:39:19;11.90;68.30
5061;DHT22;2549;52.128;21.068;2023-04-27T10:41:58;11.90;71.10
5061;DHT22;2549;52.128;21.068;2023-04-27T10:44:27;11.90;70.80
5061;DHT22;2549;52.128;21.068;2023-04-27T10:47:10;12.00;71.60
5061;DHT22;2549;52.128;21.068;2023-04-27T10:49:37;12.00;72.30
5061;DHT22;2549;52.128;21.068;2023-04-27T10:52:04;12.10;72.70
5061;DHT22;2549;52.128;21.068;2023-04-27T10:54:32;12.10;73.10
5061;DHT22;2549;52.128;21.068;2023-04-27T10:57:06;12.20;74.20
5061;DHT22;2549;52.128;21.068;2023-04-27T10:59:46;12.20;74.40
5061;DHT22;2549;52.128;21.068;2023-04-27T11:02:13;12.20;74.00
5061;DHT22;2549;52.128;21.068;2023-04-27T11:04:40;12.20;73.60
5061;DHT22;2549;52.128;21.068;2023-04-27T11:07:08;12.20;73.60
5061;DHT22;2549;52.128;21.068;2023-04-27T11:09:36;12.20;73.80
5061;DHT22;2549;52.128;21.068;2023-04-27T11:12:10;12.30;73.80
5061;DHT22;2549;52.128;21.068;2023-04-27T11:14:37;12.30;73.70
5061;DHT22;2549;52.128;21.068;2023-04-27T11:17:04;12.40;73.90
5061;DHT22;2549;52.128;21.068;2023-04-27T11:19:31;12.40;74.00
5061;DHT22;2549;52.128;21.068;2023-04-27T11:22:03;12.50;74.80
5061;DHT22;2549;52.128;21.068;2023-04-27T11:24:30;12.50;75.80
5061;DHT22;2549;52.128;21.068;2023-04-27T11:26:57;12.60;76.80
5061;DHT22;2549;52.128;21.068;2023-04-27T11:29:24;12.60;77.10
5061;DHT22;2549;52.128;21.068;2023-04-27T11:31:50;12.70;77.20
5061;DHT22;2549;52.128;21.068;2023-04-27T11:34:22;12.70;77.30
5061;DHT22;2549;52.128;21.068;2023-04-27T11:36:56;12.80;77.70
5061;DHT22;2549;52.128;21.068;2023-04-27T11:39:44;12.90;78.00
5061;DHT22;2549;52.128;21.068;2023-04-27T11:42:25;13.00;77.90
5061;DHT22;2549;52.128;21.068;2023-04-27T11:44:59;13.10;77.50
5061;DHT22;2549;52.128;21.068;2023-04-27T11:47:28;13.10;76.40
5061;DHT22;2549;52.128;21.068;2023-04-27T11:49:57;13.10;77.30
5061;DHT22;2549;52.128;21.068;2023-04-27T11:52:38;13.20;77.00
5061;DHT22;2549;52.128;21.068;2023-04-27T11:55:06;13.20;77.60
5061;DHT22;2549;52.128;21.068;2023-04-27T11:57:35;13.20;77.10
5061;DHT22;2549;52.128;21.068;2023-04-27T12:00:03;13.20;72.00
5061;DHT22;2549;52.128;21.068;2023-04-27T12:02:41;13.20;70.20
5061;DHT22;2549;52.128;21.068;2023-04-27T12:05:09;13.10;69.30
5061;DHT22;2549;52.128;21.068;2023-04-27T12:07:39;13.00;69.40
5061;DHT22;2549;52.128;21.068;2023-04-27T12:10:07;13.10;69.90
5061;DHT22;2549;52.128;21.068;2023-04-27T12:12:35;13.10;70.30
5061;DHT22;2549;52.128;21.068;2023-04-27T12:15:01;13.10;70.60
5061;DHT22;2549;52.128;21.068;2023-04-27T12:17:28;13.10;70.60
5061;DHT22;2549;52.128;21.068;2023-04-27T12:19:56;13.10;71.10
5061;DHT22;2549;52.128;21.068;2023-04-27T12:22:22;13.20;71.30
5061;DHT22;2549;52.128;21.068;2023-04-27T12:24:50;13.00;70.20
5061;DHT22;2549;52.128;21.068;2023-04-27T12:27:17;13.10;70.80
5061;DHT22;2549;52.128;21.068;2023-04-27T12:29:43;13.10;70.80
5061;DHT22;2549;52.128;21.068;2023-04-27T12:32:10;13.20;70.80
5061;DHT22;2549;52.128;21.068;2023-04-27T12:34:37;13.30;71.40
5061;DHT22;2549;52.128;21.068;2023-04-27T12:37:05;13.30;70.90
5061;DHT22;2549;52.128;21.068;2023-04-27T12:39:32;13.40;69.90
5061;DHT22;2549;52.128;21.068;2023-04-27T12:41:59;13.40;69.80
5061;DHT22;2549;52.128;21.068;2023-04-27T12:44:27;13.50;68.70
5061;DHT22;2549;52.128;21.068;2023-04-27T12:46:55;13.50;67.80
5061;DHT22;2549;52.128;21.068;2023-04-27T12:49:22;13.50;66.30
5061;DHT22;2549;52.128;21.068;2023-04-27T12:51:48;13.60;66.00
5061;DHT22;2549;52.128;21.068;2023-04-27T12:54:17;13.50;66.10
5061;DHT22;2549;52.128;21.068;2023-04-27T12:56:44;13.40;66.20
5061;DHT22;2549;52.128;21.068;2023-04-27T12:59:11;13.50;66.10
5061;DHT22;2549;52.128;21.068;2023-04-27T13:01:38;13.60;65.40
5061;DHT22;2549;52.128;21.068;2023-04-27T13:04:06;13.60;65.10
5061;DHT22;2549;52.128;21.068;2023-04-27T13:06:33;13.60;65.00
5061;DHT22;2549;52.128;21.068;2023-04-27T13:09:00;13.60;64.40
5061;DHT22;2549;52.128;21.068;2023-04-27T13:11:27;13.50;64.80
5061;DHT22;2549;52.128;21.068;2023-04-27T13:13:53;13.60;64.50
5061;DHT22;2549;52.128;21.068;2023-04-27T13:16:21;13.60;64.20
5061;DHT22;2549;52.128;21.068;2023-04-27T13:18:51;13.50;64.10
5061;DHT22;2549;52.128;21.068;2023-04-27T13:21:19;13.50;64.40
5061;DHT22;2549;52.128;21.068;2023-04-27T13:23:47;13.40;65.00
5061;DHT22;2549;52.128;21.068;2023-04-27T13:26:14;13.40;64.30
5061;DHT22;2549;52.128;21.068;2023-04-27T13:28:42;13.40;64.50
5061;DHT22;2549;52.128;21.068;2023-04-27T13:31:08;13.40;65.10
5061;DHT22;2549;52.128;21.068;2023-04-27T13:33:41;13.40;65.20
5061;DHT22;2549;52.128;21.068;2023-04-27T13:36:09;13.40;64.70
5061;DHT22;2549;52.128;21.068;2023-04-27T13:38:36;13.40;63.90
5061;DHT22;2549;52.128;21.068;2023-04-27T13:41:04;13.50;64.00
5061;DHT22;2549;52.128;21.068;2023-04-27T13:43:31;13.50;63.60
5061;DHT22;2549;52.128;21.068;2023-04-27T13:45:58;13.60;65.00
5061;DHT22;2549;52.128;21.068;2023-04-27T13:48:27;13.60;63.30
5061;DHT22;2549;52.128;21.068;2023-04-27T13:50:54;13.50;64.00
5061;DHT22;2549;52.128;21.068;2023-04-27T13:53:21;13.60;63.50
5061;DHT22;2549;52.128;21.068;2023-04-27T13:55:56;13.60;63.20
5061;DHT22;2549;52.128;21.068;2023-04-27T13:58:23;13.60;63.50
5061;DHT22;2549;52.128;21.068;2023-04-27T14:00:52;13.60;63.60
5061;DHT22;2549;52.128;21.068;2023-04-27T14:03:19;13.60;63.80
5061;DHT22;2549;52.128;21.068;2023-04-27T14:05:47;13.70;64.20
5061;DHT22;2549;52.128;21.068;2023-04-27T14:08:17;13.70;64.10
5061;DHT22;2549;52.128;21.068;2023-04-27T14:10:45;13.70;64.20
5061;DHT22;2549;52.128;21.068;2023-04-27T14:13:12;13.70;64.40
5061;DHT22;2549;52.128;21.068;2023-04-27T14:15:39;13.80;64.90
5061;DHT22;2549;52.128;21.068;2023-04-27T14:18:07;13.80;63.80
5061;DHT22;2549;52.128;21.068;2023-04-27T14:20:36;13.80;64.30
5061;DHT22;2549;52.128;21.068;2023-04-27T14:23:04;13.80;63.90
5061;DHT22;2549;52.128;21.068;2023-04-27T14:25:31;13.70;63.80
5061;DHT22;2549;52.128;21.068;2023-04-27T14:28:03;13.80;63.30
5061;DHT22;2549;52.128;21.068;2023-04-27T14:30:31;13.80;63.40
5061;DHT22;2549;52.128;21.068;2023-04-27T14:32:58;13.80;62.70
5061;DHT22;2549;52.128;21.068;2023-04-27T14:35:25;13.80;63.40
5061;DHT22;2549;52.128;21.068;2023-04-27T14:37:52;13.90;64.70
5061;DHT22;2549;52.128;21.068;2023-04-27T14:40:19;13.90;64.60
5061;DHT22;2549;52.128;21.068;2023-04-27T14:42:46;13.90;63.60
5061;DHT22;2549;52.128;21.068;2023-04-27T14:45:13;13.90;64.10
5061;DHT22;2549;52.128;21.068;2023-04-27T14:47:42;13.80;63.70
5061;DHT22;2549;52.128;21.068;2023-04-27T14:50:09;13.80;63.80
5061;DHT22;2549;52.128;21.068;2023-04-27T14:52:37;13.70;64.30
5061;DHT22;2549;52.128;21.068;2023-04-27T14:55:05;13.70;65.60
5061;DHT22;2549;52.128;21.068;2023-04-27T14:57:32;13.70;64.30
5061;DHT22;2549;52.128;21.068;2023-04-27T14:59:59;13.80;64.50
5061;DHT22;2549;52.128;21.068;2023-04-27T15:02:26;13.80;63.60
5061;DHT22;2549;52.128;21.068;2023-04-27T15:04:53;13.90;63.60
5061;DHT22;2549;52.128;21.068;2023-04-27T15:07:20;13.90;61.10
5061;DHT22;2549;52.128;21.068;2023-04-27T15:09:47;13.90;60.40
5061;DHT22;2549;52.128;21.068;2023-04-27T15:12:13;13.90;59.80
5061;DHT22;2549;52.128;21.068;2023-04-27T15:14:40;13.90;59.60
5061;DHT22;2549;52.128;21.068;2023-04-27T15:17:07;13.80;59.40
5061;DHT22;2549;52.128;21.068;2023-04-27T15:19:34;13.90;59.70
5061;DHT22;2549;52.128;21.068;2023-04-27T15:22:03;13.90;59.60
5061;DHT22;2549;52.128;21.068;2023-04-27T15:24:30;13.90;59.80
5061;DHT22;2549;52.128;21.068;2023-04-27T15:26:57;13.90;60.40
5061;DHT22;2549;52.128;21.068;2023-04-27T15:29:24;13.90;60.60
5061;DHT22;2549;52.128;21.068;2023-04-27T15:31:51;13.90;61.40
5061;DHT22;2549;52.128;21.068;2023-04-27T15:34:18;13.80;61.70
5061;DHT22;2549;52.128;21.068;2023-04-27T15:36:45;13.80;62.10
5061;DHT22;2549;52.128;21.068;2023-04-27T15:39:12;13.70;61.80
5061;DHT22;2549;52.128;21.068;2023-04-27T15:41:39;13.70;62.10
5061;DHT22;2549;52.128;21.068;2023-04-27T15:44:06;13.60;62.10
5061;DHT22;2549;52.128;21.068;2023-04-27T15:46:33;13.50;62.10
5061;DHT22;2549;52.128;21.068;2023-04-27T15:49:00;13.50;62.80
5061;DHT22;2549;52.128;21.068;2023-04-27T15:51:27;13.50;62.80
5061;DHT22;2549;52.128;21.068;2023-04-27T15:53:53;13.50;62.70
5061;DHT22;2549;52.128;21.068;2023-04-27T15:56:20;13.50;63.20
5061;DHT22;2549;52.128;21.068;2023-04-27T15:58:47;13.50;63.30
5061;DHT22;2549;52.128;21.068;2023-04-27T16:01:14;13.50;63.00
5061;DHT22;2549;52.128;21.068;2023-04-27T16:03:41;13.60;62.60
5061;DHT22;2549;52.128;21.068;2023-04-27T16:06:08;13.60;63.00
5061;DHT22;2549;52.128;21.068;2023-04-27T16:08:35;13.60;62.90
5061;DHT22;2549;52.128;21.068;2023-04-27T16:11:02;13.60;63.20
5061;DHT22;2549;52.128;21.068;2023-04-27T16:13:29;13.60;63.20
5061;DHT22;2549;52.128;21.068;2023-04-27T16:15:55;13.60;63.10